Time;durP1;ratioP1;P1;durP2;ratioP2;P2;SDS_P1;SDS_P2;PMS_P1;PMS_P2;Temp;Humidity;BMP_temperature;BMP_pressure;BME280_temperature;BME280_humidity;BME280_pressure;Samples;Min_cycle;Max_cycle;Signal;HPM_P1;HPM_P2
2023/05/22 00:00:34;;;;;;;16.60;12.18;;;17.00;99.90;;;;;;5030908;28;20036;-84
2023/05/22 00:03:02;;;;;;;17.23;12.05;;;17.10;99.90;;;;;;5047732;28;20040;-84
2023/05/22 00:05:29;;;;;;;15.85;11.98;;;17.10;99.90;;;;;;5047955;28;20045;-84
2023/05/22 00:07:55;;;;;;;15.13;12.27;;;17.00;99.90;;;;;;5030555;28;20041;-84
2023/05/22 00:10:20;;;;;;;14.05;11.45;;;17.00;99.90;;;;;;5031468;28;20059;-84
2023/05/22 00:12:46;;;;;;;16.52;11.48;;;17.10;99.90;;;;;;5063907;28;20090;-84
2023/05/22 00:15:12;;;;;;;16.98;11.73;;;17.00;99.90;;;;;;5047216;28;20071;-83
2023/05/22 00:17:38;;;;;;;13.55;11.40;;;17.00;99.90;;;;;;5047013;28;20068;-83
2023/05/22 00:20:09;;;;;;;17.15;11.45;;;17.00;99.90;;;;;;5030958;28;20037;-84
2023/05/22 00:22:36;;;;;;;17.50;12.65;;;17.00;99.90;;;;;;5064475;28;20348;-84
2023/05/22 00:25:06;;;;;;;15.63;12.32;;;17.00;99.90;;;;;;5030854;28;20047;-84
2023/05/22 00:27:32;;;;;;;14.88;11.75;;;17.00;99.90;;;;;;5064068;28;20405;-84
2023/05/22 00:29:58;;;;;;;18.73;12.15;;;17.00;99.90;;;;;;5046416;28;20057;-84
2023/05/22 00:32:27;;;;;;;16.05;11.93;;;17.00;99.90;;;;;;5030673;28;20041;-84
2023/05/22 00:34:53;;;;;;;14.82;11.68;;;17.00;99.90;;;;;;5062323;28;20045;-84
2023/05/22 00:37:19;;;;;;;19.92;13.35;;;17.00;99.90;;;;;;5047002;28;20417;-84
2023/05/22 00:39:45;;;;;;;16.65;12.00;;;17.00;99.90;;;;;;5047319;28;20044;-84
2023/05/22 00:42:11;;;;;;;17.35;12.48;;;17.00;99.90;;;;;;5029945;28;20048;-84
2023/05/22 00:44:37;;;;;;;16.42;12.52;;;17.00;99.90;;;;;;5047131;28;20045;-84
2023/05/22 00:47:03;;;;;;;16.50;13.35;;;18.30;99.90;;;;;;5046709;28;20119;-83
2023/05/22 00:49:29;;;;;;;14.57;11.75;;;17.00;99.90;;;;;;5046331;28;20045;-84
2023/05/22 00:51:55;;;;;;;16.17;12.50;;;17.00;99.90;;;;;;5046509;28;20040;-84
2023/05/22 00:54:21;;;;;;;15.15;11.88;;;17.00;99.90;;;;;;5030279;28;20049;-84
2023/05/22 00:56:47;;;;;;;20.83;13.15;;;17.00;99.90;;;;;;5063522;28;20370;-84
2023/05/22 00:59:13;;;;;;;15.35;13.30;;;17.00;99.90;;;;;;5045788;28;20082;-84
2023/05/22 01:01:41;;;;;;;18.65;12.23;;;16.90;99.90;;;;;;5046998;28;20044;-84
2023/05/22 01:04:10;;;;;;;15.55;12.23;;;17.80;99.90;;;;;;5029409;28;20040;-84
2023/05/22 01:06:36;;;;;;;19.40;13.02;;;16.90;99.90;;;;;;5045994;28;20040;-83
2023/05/22 01:09:03;;;;;;;14.00;11.75;;;16.90;99.90;;;;;;5046404;28;20055;-83
2023/05/22 01:11:57;;;;;;;14.55;12.35;;;16.90;99.90;;;;;;5046664;28;20037;-84
2023/05/22 01:14:48;;;;;;;17.52;11.35;;;16.90;99.90;;;;;;5046956;28;20044;-84
2023/05/22 01:17:45;;;;;;;17.73;13.25;;;16.90;99.90;;;;;;5062327;28;20084;-85
2023/05/22 01:20:19;;;;;;;17.55;12.85;;;16.90;99.90;;;;;;5005190;28;20524;-84
2023/05/22 01:22:48;;;;;;;20.73;13.65;;;16.80;99.90;;;;;;5046352;28;20040;-84
2023/05/22 01:25:29;;;;;;;15.38;12.18;;;16.90;99.90;;;;;;5046128;28;20417;-84
2023/05/22 01:28:17;;;;;;;15.82;12.18;;;16.90;99.90;;;;;;5062783;28;20515;-84
2023/05/22 01:30:46;;;;;;;21.27;13.20;;;16.90;99.90;;;;;;5061944;28;20067;-83
2023/05/22 01:33:15;;;;;;;25.90;14.15;;;16.90;99.90;;;;;;5045495;28;20052;-83
2023/05/22 01:35:47;;;;;;;17.95;12.52;;;17.00;99.90;;;;;;5046394;28;20048;-84
2023/05/22 01:38:14;;;;;;;17.83;13.40;;;17.00;99.90;;;;;;5062052;28;20051;-84
2023/05/22 01:40:40;;;;;;;15.73;13.70;;;16.90;99.90;;;;;;5045708;28;20127;-84
2023/05/22 01:43:07;;;;;;;22.08;12.55;;;17.00;99.90;;;;;;5029447;28;20094;-83
2023/05/22 01:45:33;;;;;;;15.35;12.20;;;17.00;99.90;;;;;;5044720;28;20033;-83
2023/05/22 01:47:59;;;;;;;18.83;12.82;;;17.00;99.90;;;;;;5045130;28;20041;-84
2023/05/22 01:50:25;;;;;;;17.65;13.32;;;16.90;99.90;;;;;;5028144;28;20123;-84
2023/05/22 01:53:00;;;;;;;15.32;12.27;;;17.00;99.90;;;;;;5029807;28;20059;-83
2023/05/22 01:55:39;;;;;;;16.13;12.68;;;17.00;99.90;;;;;;5045210;28;20370;-84
2023/05/22 01:58:32;;;;;;;15.02;11.75;;;16.90;99.90;;;;;;5061644;28;20102;-83
2023/05/22 02:01:00;;;;;;;16.42;12.10;;;17.00;99.90;;;;;;5062503;28;20448;-83
2023/05/22 02:03:30;;;;;;;15.35;12.43;;;17.00;99.90;;;;;;5045110;28;20123;-83
2023/05/22 02:05:58;;;;;;;15.15;13.02;;;16.90;99.90;;;;;;5062757;28;20102;-84
2023/05/22 02:08:26;;;;;;;15.88;11.95;;;17.00;99.90;;;;;;5045159;28;20510;-83
2023/05/22 02:10:55;;;;;;;16.15;13.80;;;16.90;99.90;;;;;;5029450;28;20102;-83
2023/05/22 02:13:22;;;;;;;18.98;12.50;;;16.90;99.90;;;;;;5044863;28;20131;-83
2023/05/22 02:15:48;;;;;;;18.27;12.07;;;16.90;99.90;;;;;;5061956;28;20460;-83
2023/05/22 02:18:14;;;;;;;14.70;11.82;;;16.90;99.90;;;;;;5045228;28;20136;-83
2023/05/22 02:20:45;;;;;;;17.25;14.35;;;16.90;99.90;;;;;;5011756;28;20139;-84
2023/05/22 02:23:11;;;;;;;19.73;13.43;;;16.80;99.90;;;;;;5062399;28;20084;-84
2023/05/22 02:25:36;;;;;;;19.80;13.60;;;16.80;99.90;;;;;;5044308;28;20497;-83
2023/05/22 02:28:02;;;;;;;16.05;12.30;;;16.80;99.90;;;;;;5028111;28;20036;-83
2023/05/22 02:30:28;;;;;;;17.48;14.05;;;16.80;99.90;;;;;;5044380;28;20382;-83
2023/05/22 02:32:53;;;;;;;18.05;14.40;;;16.70;99.90;;;;;;5044601;28;20485;-83
2023/05/22 02:35:19;;;;;;;18.33;14.38;;;16.70;99.90;;;;;;5061525;28;20037;-83
2023/05/22 02:37:45;;;;;;;18.30;14.68;;;16.70;99.90;;;;;;5045244;28;20090;-83
2023/05/22 02:40:11;;;;;;;20.60;14.38;;;16.60;99.90;;;;;;5045152;28;20127;-84
2023/05/22 02:42:37;;;;;;;18.00;14.65;;;16.60;99.90;;;;;;5061038;28;20049;-83
2023/05/22 02:45:03;;;;;;;17.38;13.82;;;16.50;99.90;;;;;;5061354;28;20044;-83
2023/05/22 02:47:29;;;;;;;18.40;15.32;;;16.50;99.90;;;;;;5028440;28;20470;-83
2023/05/22 02:49:56;;;;;;;18.85;14.73;;;16.50;99.90;;;;;;5011694;28;20101;-83
2023/05/22 02:52:23;;;;;;;20.55;15.90;;;16.50;99.90;;;;;;5045351;28;20465;-83
2023/05/22 02:54:49;;;;;;;23.38;15.95;;;16.50;99.90;;;;;;5044200;28;20482;-83
2023/05/22 02:57:15;;;;;;;21.17;15.80;;;16.50;99.90;;;;;;5061804;28;20052;-83
2023/05/22 02:59:41;;;;;;;19.98;16.70;;;16.40;99.90;;;;;;5032164;28;20098;-83
2023/05/22 03:02:06;;;;;;;20.95;15.70;;;16.50;99.90;;;;;;5065220;28;20434;-83
2023/05/22 03:04:32;;;;;;;22.65;15.55;;;17.00;99.90;;;;;;5048115;28;20138;-83
2023/05/22 03:07:00;;;;;;;22.20;15.80;;;16.40;99.90;;;;;;5051354;28;20041;-83
2023/05/22 03:09:26;;;;;;;21.98;16.48;;;16.60;99.90;;;;;;5049490;28;20117;-83
2023/05/22 03:11:51;;;;;;;24.65;16.48;;;16.40;99.90;;;;;;5030878;28;20559;-83
2023/05/22 03:14:17;;;;;;;18.92;15.30;;;16.40;99.90;;;;;;5065229;28;20040;-83
2023/05/22 03:16:43;;;;;;;20.23;16.02;;;16.40;99.90;;;;;;5064427;28;20041;-83
2023/05/22 03:19:10;;;;;;;20.25;15.85;;;16.40;99.90;;;;;;5048027;28;20045;-84
2023/05/22 03:21:37;;;;;;;22.00;15.25;;;16.40;99.90;;;;;;5048382;28;20048;-84
2023/05/22 03:24:03;;;;;;;21.95;15.52;;;16.40;99.90;;;;;;5048388;28;20138;-84
2023/05/22 03:26:29;;;;;;;19.48;15.63;;;16.40;99.90;;;;;;5047936;28;20056;-83
2023/05/22 03:28:56;;;;;;;19.05;15.40;;;16.40;99.90;;;;;;5064376;28;20448;-83
2023/05/22 03:31:28;;;;;;;19.95;15.82;;;16.40;99.90;;;;;;5048363;28;20045;-83
2023/05/22 03:33:53;;;;;;;22.05;15.63;;;16.40;99.90;;;;;;5047605;28;20135;-83
2023/05/22 03:36:20;;;;;;;18.58;15.60;;;17.60;99.90;;;;;;5047665;28;20139;-84
2023/05/22 03:38:46;;;;;;;24.70;16.98;;;16.30;99.90;;;;;;5064588;28;20042;-84
2023/05/22 03:41:12;;;;;;;20.42;14.55;;;16.30;99.90;;;;;;5014527;28;20063;-83
2023/05/22 03:43:37;;;;;;;22.65;15.98;;;16.30;99.90;;;;;;5014623;28;20833;-83
2023/05/22 03:46:03;;;;;;;23.75;16.77;;;16.40;99.90;;;;;;5046833;28;20528;-83
2023/05/22 03:48:30;;;;;;;23.05;16.02;;;16.40;99.90;;;;;;5015435;28;20041;-83
2023/05/22 03:50:55;;;;;;;20.08;16.65;;;16.40;99.90;;;;;;5063427;28;20076;-83
2023/05/22 03:53:21;;;;;;;20.75;16.00;;;16.40;99.90;;;;;;5047573;28;20075;-83
2023/05/22 03:55:47;;;;;;;21.75;16.02;;;16.30;99.90;;;;;;5046965;28;20334;-83
2023/05/22 03:58:13;;;;;;;20.38;16.15;;;16.30;99.90;;;;;;5047047;28;20045;-83
2023/05/22 04:00:38;;;;;;;23.02;17.13;;;16.30;99.90;;;;;;5030711;28;20037;-83
2023/05/22 04:03:05;;;;;;;20.45;15.57;;;16.20;99.90;;;;;;5064435;28;20089;-83
2023/05/22 04:05:32;;;;;;;21.17;15.38;;;16.20;99.90;;;;;;5047862;28;20353;-83
2023/05/22 04:07:57;;;;;;;20.42;15.57;;;16.20;99.90;;;;;;5030276;28;20055;-83
2023/05/22 04:10:23;;;;;;;23.27;15.82;;;16.20;99.90;;;;;;5063680;28;20052;-83
2023/05/22 04:12:49;;;;;;;20.45;16.00;;;16.20;99.90;;;;;;5030428;28;20518;-83
2023/05/22 04:15:15;;;;;;;28.02;16.27;;;16.10;99.90;;;;;;5030347;28;20481;-83
2023/05/22 04:17:41;;;;;;;19.33;15.52;;;16.10;99.90;;;;;;5046809;28;20056;-83
2023/05/22 04:20:07;;;;;;;18.65;14.85;;;16.10;99.90;;;;;;5046484;28;20046;-83
2023/05/22 04:22:33;;;;;;;21.13;15.07;;;16.10;99.90;;;;;;5047116;28;20044;-83
2023/05/22 04:24:59;;;;;;;21.52;15.63;;;16.10;99.90;;;;;;5046411;28;20189;-84
2023/05/22 04:27:25;;;;;;;19.60;15.32;;;16.10;99.90;;;;;;5047041;28;20420;-82
2023/05/22 04:29:50;;;;;;;22.60;16.05;;;16.10;99.90;;;;;;5029770;28;20091;-83
2023/05/22 04:32:20;;;;;;;18.65;15.00;;;16.10;99.90;;;;;;5062896;28;20083;-83
2023/05/22 04:34:48;;;;;;;19.67;14.90;;;15.00;99.90;;;;;;5046728;28;20501;-82
2023/05/22 04:37:17;;;;;;;21.48;15.52;;;16.20;99.90;;;;;;5046599;28;20052;-84
2023/05/22 04:39:44;;;;;;;21.58;14.73;;;16.20;99.90;;;;;;5031131;28;20497;-82
2023/05/22 04:42:13;;;;;;;19.83;15.40;;;16.10;99.90;;;;;;5046076;28;20041;-81
2023/05/22 04:44:40;;;;;;;22.00;14.57;;;16.20;99.90;;;;;;5046489;28;20044;-83
2023/05/22 04:47:10;;;;;;;19.40;14.18;;;17.10;99.90;;;;;;5062819;28;20494;-83
2023/05/22 04:49:37;;;;;;;17.00;14.32;;;16.20;99.90;;;;;;5062693;28;20076;-84
2023/05/22 04:52:04;;;;;;;18.50;14.20;;;16.20;99.90;;;;;;5030430;28;20103;-84
2023/05/22 04:54:30;;;;;;;19.75;14.20;;;16.30;99.90;;;;;;5029406;28;20044;-85
2023/05/22 04:56:56;;;;;;;21.08;14.75;;;16.30;99.90;;;;;;5030317;28;20158;-83
2023/05/22 04:59:25;;;;;;;21.73;14.95;;;16.30;99.90;;;;;;5029426;28;20417;-83
2023/05/22 05:01:51;;;;;;;20.65;14.63;;;16.30;99.90;;;;;;5062789;28;20059;-83
2023/05/22 05:04:17;;;;;;;16.83;13.25;;;16.40;99.90;;;;;;5062423;28;20501;-82
2023/05/22 05:06:43;;;;;;;19.38;13.10;;;16.40;99.90;;;;;;5046327;28;20059;-82
2023/05/22 05:09:09;;;;;;;16.67;12.52;;;16.40;99.90;;;;;;5046396;28;20433;-84
2023/05/22 05:11:35;;;;;;;18.75;12.95;;;16.50;99.90;;;;;;5045918;28;20127;-81
2023/05/22 05:14:01;;;;;;;19.92;13.15;;;16.50;99.90;;;;;;5063287;28;20527;-81
2023/05/22 05:16:26;;;;;;;25.35;12.95;;;16.20;99.90;;;;;;5062348;28;20405;-82
2023/05/22 05:18:54;;;;;;;16.85;10.90;;;16.60;99.90;;;;;;5045847;28;20133;-84
2023/05/22 05:21:20;;;;;;;17.45;11.75;;;16.60;99.90;;;;;;5045558;28;20087;-82
2023/05/22 05:23:46;;;;;;;14.50;10.48;;;16.60;99.90;;;;;;5045809;28;20084;-82
2023/05/22 05:26:12;;;;;;;19.88;13.23;;;16.60;99.90;;;;;;5062843;28;20723;-81
2023/05/22 05:28:38;;;;;;;16.48;11.52;;;16.60;99.90;;;;;;5045676;28;20072;-83
2023/05/22 05:31:04;;;;;;;13.10;10.60;;;16.60;99.90;;;;;;5045877;28;20045;-81
2023/05/22 05:33:30;;;;;;;14.55;10.32;;;16.60;99.90;;;;;;5061927;28;20109;-82
2023/05/22 05:35:55;;;;;;;15.55;10.07;;;16.70;99.90;;;;;;5029154;28;20045;-83
2023/05/22 05:38:21;;;;;;;14.63;10.48;;;16.60;99.90;;;;;;5062121;28;20110;-82
2023/05/22 05:40:47;;;;;;;17.10;11.18;;;16.60;99.90;;;;;;5045194;28;20049;-83
2023/05/22 05:43:14;;;;;;;13.65;9.93;;;16.60;99.90;;;;;;5062100;28;20106;-82
2023/05/22 05:45:40;;;;;;;14.75;10.50;;;16.60;99.90;;;;;;5061815;28;20044;-84
2023/05/22 05:48:06;;;;;;;12.50;10.85;;;16.70;99.90;;;;;;5045796;28;20200;-85
2023/05/22 05:50:32;;;;;;;11.57;8.60;;;16.70;99.90;;;;;;5061811;28;20141;-85
2023/05/22 05:52:58;;;;;;;14.40;10.15;;;16.70;99.90;;;;;;5028886;28;20626;-85
2023/05/22 05:55:24;;;;;;;14.43;9.68;;;16.80;99.90;;;;;;5028660;28;20041;-85
2023/05/22 05:57:50;;;;;;;11.15;9.48;;;16.90;99.90;;;;;;5028908;28;20044;-85
2023/05/22 06:00:17;;;;;;;12.80;8.77;;;16.90;99.90;;;;;;5061618;28;20052;-85
2023/05/22 06:02:42;;;;;;;15.00;9.63;;;17.00;99.90;;;;;;5029023;28;20397;-85
2023/05/22 06:05:09;;;;;;;13.55;8.63;;;17.00;99.90;;;;;;5062116;28;20047;-85
2023/05/22 06:07:38;;;;;;;13.18;8.80;;;17.10;99.90;;;;;;5045429;28;20123;-80
2023/05/22 06:10:09;;;;;;;10.70;8.82;;;17.10;99.90;;;;;;5029657;28;20495;-81
2023/05/22 06:12:36;;;;;;;14.65;8.27;;;17.10;99.90;;;;;;5045558;28;20064;-81
2023/05/22 06:15:04;;;;;;;11.35;8.20;;;17.20;99.90;;;;;;5045451;28;20044;-81
2023/05/22 06:17:30;;;;;;;19.48;13.25;;;17.20;99.90;;;;;;5045132;28;20521;-81
2023/05/22 06:19:56;;;;;;;11.55;8.32;;;17.20;99.90;;;;;;5061975;28;20058;-81
2023/05/22 06:22:25;;;;;;;13.52;8.60;;;17.20;99.90;;;;;;5046063;28;20438;-81
2023/05/22 06:24:53;;;;;;;11.27;7.35;;;17.20;99.90;;;;;;5062179;28;20057;-81
2023/05/22 06:27:22;;;;;;;9.38;8.15;;;17.10;99.90;;;;;;5045677;28;20374;-82
2023/05/22 06:29:49;;;;;;;12.27;7.05;;;17.10;99.90;;;;;;5044973;28;20526;-81
2023/05/22 06:32:15;;;;;;;13.38;7.00;;;17.10;99.90;;;;;;5046766;28;20086;-82
2023/05/22 06:34:43;;;;;;;16.83;7.50;;;17.00;99.90;;;;;;5066037;28;20083;-81
2023/05/22 06:37:09;;;;;;;12.05;7.57;;;16.80;99.90;;;;;;5065001;28;20529;-81
2023/05/22 06:39:35;;;;;;;14.82;7.57;;;17.00;99.90;;;;;;5065839;28;20083;-82
2023/05/22 06:42:01;;;;;;;14.82;7.32;;;17.00;99.90;;;;;;5065760;28;20119;-82
2023/05/22 06:44:26;;;;;;;13.63;7.38;;;17.10;99.90;;;;;;5048726;28;20496;-82
2023/05/22 06:46:52;;;;;;;13.07;6.57;;;17.10;99.90;;;;;;5065118;28;20043;-81
2023/05/22 06:49:18;;;;;;;8.93;6.28;;;17.10;99.90;;;;;;5048373;28;20052;-81
2023/05/22 06:51:45;;;;;;;11.43;5.07;;;17.10;99.90;;;;;;5065346;28;20040;-81
2023/05/22 06:54:12;;;;;;;11.73;6.68;;;17.00;99.90;;;;;;5048609;28;20469;-81
2023/05/22 06:56:39;;;;;;;11.82;4.60;;;16.90;99.90;;;;;;5049331;28;20106;-81
2023/05/22 06:59:04;;;;;;;11.35;5.22;;;16.90;99.90;;;;;;5048340;28;20582;-80
2023/05/22 07:01:30;;;;;;;9.93;5.53;;;16.80;99.90;;;;;;5048391;28;20048;-81
2023/05/22 07:04:00;;;;;;;13.57;4.75;;;16.70;99.90;;;;;;5048216;28;20043;-81
2023/05/22 07:06:26;;;;;;;12.75;4.90;;;16.70;99.90;;;;;;5065048;28;20083;-81
2023/05/22 07:08:52;;;;;;;7.63;4.38;;;16.70;99.90;;;;;;5048245;28;20075;-80
2023/05/22 07:11:18;;;;;;;12.48;5.43;;;16.70;99.90;;;;;;5064251;28;20041;-81
2023/05/22 07:13:44;;;;;;;13.98;4.32;;;16.70;99.90;;;;;;5048354;28;20166;-80
2023/05/22 07:16:10;;;;;;;16.60;9.10;;;16.60;99.90;;;;;;5048104;28;20048;-81
2023/05/22 07:18:35;;;;;;;11.50;4.88;;;16.60;99.90;;;;;;5048548;28;20051;-80
2023/05/22 07:21:01;;;;;;;8.85;4.40;;;16.60;99.90;;;;;;5064438;28;20049;-81
2023/05/22 07:23:27;;;;;;;11.40;4.25;;;16.60;99.90;;;;;;5064321;28;20041;-81
2023/05/22 07:25:53;;;;;;;8.70;3.90;;;16.60;99.90;;;;;;5048459;28;20159;-81
2023/05/22 07:28:18;;;;;;;10.73;4.13;;;16.50;99.90;;;;;;5047493;28;20486;-81
2023/05/22 07:30:44;;;;;;;10.65;3.85;;;16.50;99.90;;;;;;5048101;28;20053;-80
2023/05/22 07:33:10;;;;;;;9.90;4.13;;;16.50;99.90;;;;;;5048422;28;20062;-80
2023/05/22 07:35:36;;;;;;;8.32;4.13;;;16.40;99.90;;;;;;5064285;28;20037;-82
2023/05/22 07:38:02;;;;;;;8.32;3.70;;;16.40;99.90;;;;;;5064430;28;20086;-84
2023/05/22 07:40:28;;;;;;;8.38;4.13;;;16.30;99.90;;;;;;5047980;28;20033;-85
2023/05/22 07:42:54;;;;;;;9.85;3.58;;;16.30;99.90;;;;;;5064178;28;20397;-86
2023/05/22 07:45:20;;;;;;;10.20;3.78;;;16.30;99.90;;;;;;5046884;28;20494;-88
2023/05/22 07:47:46;;;;;;;9.23;3.60;;;16.20;99.90;;;;;;5014875;28;20044;-86
2023/05/22 07:50:11;;;;;;;8.98;4.20;;;16.20;99.90;;;;;;5030416;28;20060;-83
2023/05/22 07:52:37;;;;;;;8.77;3.92;;;16.20;99.90;;;;;;5047854;28;20039;-85
2023/05/22 07:55:04;;;;;;;8.90;4.47;;;16.20;99.90;;;;;;5063911;28;20048;-85
2023/05/22 07:57:29;;;;;;;14.68;4.32;;;16.20;99.90;;;;;;5063725;28;20441;-84
2023/05/22 07:59:55;;;;;;;9.88;3.53;;;16.20;99.90;;;;;;5047099;28;20044;-85
2023/05/22 08:02:21;;;;;;;8.32;4.43;;;16.20;99.90;;;;;;5063410;28;20052;-82
2023/05/22 08:04:49;;;;;;;7.47;3.92;;;16.20;99.90;;;;;;5047651;28;20049;-81
2023/05/22 08:07:14;;;;;;;10.27;4.72;;;16.20;99.90;;;;;;5047542;28;20040;-82
2023/05/22 08:09:40;;;;;;;8.00;4.45;;;16.20;99.90;;;;;;5047295;28;20135;-81
2023/05/22 08:12:06;;;;;;;12.15;4.50;;;16.20;99.90;;;;;;5046844;28;20044;-81
2023/05/22 08:14:32;;;;;;;10.70;4.70;;;16.20;99.90;;;;;;5063421;28;20045;-81
2023/05/22 08:16:59;;;;;;;8.43;4.63;;;16.20;99.90;;;;;;5064176;28;20534;-80
2023/05/22 08:19:25;;;;;;;9.90;5.68;;;16.20;99.90;;;;;;5063941;28;20127;-83
2023/05/22 08:21:56;;;;;;;11.32;4.97;;;16.20;99.90;;;;;;5064038;28;20123;-81
2023/05/22 08:24:27;;;;;;;7.93;3.58;;;16.20;99.90;;;;;;5063346;28;20037;-82
2023/05/22 08:26:53;;;;;;;8.35;5.28;;;16.20;99.90;;;;;;5047404;28;20041;-81
2023/05/22 08:29:20;;;;;;;12.10;5.28;;;16.30;99.90;;;;;;5047374;28;20071;-81
2023/05/22 08:31:45;;;;;;;11.07;4.97;;;16.30;99.90;;;;;;5046773;28;20044;-82
2023/05/22 08:34:11;;;;;;;7.03;5.22;;;16.30;99.90;;;;;;5047417;28;20052;-81
2023/05/22 08:36:37;;;;;;;6.45;4.97;;;16.30;99.90;;;;;;5046481;28;20428;-81
2023/05/22 08:39:05;;;;;;;10.23;5.38;;;16.30;99.90;;;;;;5064285;28;20071;-81
2023/05/22 08:41:30;;;;;;;13.25;5.45;;;16.30;99.90;;;;;;5030752;28;20113;-81
2023/05/22 08:43:56;;;;;;;10.95;5.05;;;16.30;99.90;;;;;;5046527;28;20564;-80
2023/05/22 08:46:27;;;;;;;11.13;5.28;;;16.40;99.90;;;;;;5046343;28;20131;-81
2023/05/22 08:48:56;;;;;;;8.50;4.70;;;16.30;99.90;;;;;;5062968;28;20051;-81
2023/05/22 08:51:28;;;;;;;15.55;7.05;;;16.40;99.90;;;;;;5047085;28;20047;-81
2023/05/22 08:53:56;;;;;;;7.82;6.72;;;16.40;99.90;;;;;;5062564;28;20049;-81
2023/05/22 08:56:22;;;;;;;7.72;5.43;;;16.50;99.90;;;;;;5062554;28;20052;-81
2023/05/22 08:58:50;;;;;;;9.18;4.68;;;16.40;99.90;;;;;;5062527;28;20045;-82
2023/05/22 09:01:16;;;;;;;10.07;5.28;;;16.40;99.90;;;;;;5046591;28;20044;-81
2023/05/22 09:03:42;;;;;;;10.23;5.63;;;16.40;99.90;;;;;;5062777;28;20503;-81
2023/05/22 09:06:09;;;;;;;7.90;5.53;;;16.40;99.90;;;;;;5062222;28;20051;-80
2023/05/22 09:08:36;;;;;;;12.95;5.95;;;16.40;99.90;;;;;;5062857;28;20541;-81
2023/05/22 09:11:02;;;;;;;9.32;5.32;;;16.30;99.90;;;;;;5030028;28;20044;-81
2023/05/22 09:13:31;;;;;;;8.95;5.30;;;16.30;99.90;;;;;;5062844;28;20504;-80
2023/05/22 09:16:08;;;;;;;11.27;5.45;;;16.30;99.90;;;;;;5046144;28;20072;-81
2023/05/22 09:18:36;;;;;;;9.38;5.53;;;16.30;99.90;;;;;;5046088;28;20510;-81
2023/05/22 09:21:02;;;;;;;9.73;5.70;;;16.30;99.90;;;;;;5063016;28;20037;-80
2023/05/22 09:23:28;;;;;;;13.15;6.47;;;16.40;99.90;;;;;;5045665;28;20493;-80
2023/05/22 09:25:55;;;;;;;11.32;6.03;;;16.40;99.90;;;;;;5062609;28;20118;-80
2023/05/22 09:28:21;;;;;;;7.88;5.07;;;16.60;99.90;;;;;;5045509;28;20153;-80
2023/05/22 09:30:49;;;;;;;9.15;5.35;;;16.70;99.90;;;;;;5045764;28;20621;-81
2023/05/22 09:33:15;;;;;;;12.75;5.72;;;16.80;99.90;;;;;;5013056;28;20032;-81
2023/05/22 09:35:42;;;;;;;16.25;7.45;;;17.00;99.90;;;;;;5061997;28;20060;-80
2023/05/22 09:38:09;;;;;;;10.63;5.63;;;17.20;99.90;;;;;;5062046;28;20045;-81
2023/05/22 09:40:37;;;;;;;11.35;5.57;;;17.40;99.90;;;;;;5062001;28;20076;-81
2023/05/22 09:43:09;;;;;;;10.63;5.57;;;17.50;99.90;;;;;;5062560;28;20040;-80
2023/05/22 09:45:36;;;;;;;10.23;6.18;;;17.60;99.90;;;;;;5062060;28;20587;-81
2023/05/22 09:48:07;;;;;;;14.25;6.00;;;17.80;99.90;;;;;;5045476;28;20044;-81
2023/05/22 09:50:34;;;;;;;12.75;5.97;;;18.00;99.90;;;;;;5045540;28;20044;-81
2023/05/22 09:53:03;;;;;;;12.55;6.25;;;18.20;99.90;;;;;;5046019;28;20044;-79
2023/05/22 09:55:30;;;;;;;10.50;5.28;;;18.50;99.90;;;;;;5045385;28;20520;-79
2023/05/22 09:57:57;;;;;;;14.88;6.53;;;18.70;99.90;;;;;;5061738;28;20045;-81
2023/05/22 10:00:24;;;;;;;11.77;6.35;;;19.00;99.90;;;;;;5045655;28;20137;-80
2023/05/22 10:02:57;;;;;;;14.38;6.38;;;19.20;99.90;;;;;;5045150;28;20500;-80
2023/05/22 10:05:29;;;;;;;12.13;6.05;;;19.40;99.90;;;;;;5062160;28;20078;-82
2023/05/22 10:08:00;;;;;;;11.03;4.87;;;19.50;99.90;;;;;;5061924;28;20083;-82
2023/05/22 10:10:26;;;;;;;13.65;6.93;;;19.80;99.90;;;;;;5061781;28;20044;-82
2023/05/22 10:13:03;;;;;;;12.48;5.75;;;20.00;99.90;;;;;;5029616;28;20041;-82
2023/05/22 10:15:34;;;;;;;14.88;6.40;;;20.20;99.90;;;;;;5062581;28;20048;-82
2023/05/22 10:18:00;;;;;;;12.25;6.32;;;20.20;99.90;;;;;;5063202;28;20044;-82
2023/05/22 10:20:27;;;;;;;18.10;6.57;;;20.20;99.90;;;;;;5062603;28;20041;-82
2023/05/22 10:22:54;;;;;;;12.20;6.35;;;20.40;99.90;;;;;;5046607;28;20115;-82
2023/05/22 10:25:24;;;;;;;15.93;6.68;;;20.50;99.90;;;;;;5062899;28;20131;-82
2023/05/22 10:27:54;;;;;;;14.88;6.22;;;20.60;99.90;;;;;;5062495;28;20119;-82
2023/05/22 10:30:27;;;;;;;11.50;6.72;;;20.60;99.90;;;;;;5063100;28;20075;-82
2023/05/22 10:33:04;;;;;;;9.45;6.20;;;20.60;99.90;;;;;;5046453;28;20047;-82
2023/05/22 10:35:51;;;;;;;12.30;6.57;;;20.60;99.90;;;;;;5062733;28;20048;-82
2023/05/22 10:38:45;;;;;;;8.30;7.10;;;20.60;99.90;;;;;;5047554;28;20036;-83
2023/05/22 10:41:11;;;;;;;14.43;6.35;;;20.60;99.90;;;;;;5063374;28;20055;-81
2023/05/22 10:43:43;;;;;;;14.18;6.80;;;20.50;99.90;;;;;;5046481;28;20049;-82
2023/05/22 10:46:11;;;;;;;14.57;7.60;;;20.60;99.90;;;;;;5046545;28;20048;-80
2023/05/22 10:48:45;;;;;;;13.40;7.22;;;20.70;99.90;;;;;;5062519;28;20041;-81
2023/05/22 10:51:13;;;;;;;9.93;6.25;;;20.90;99.90;;;;;;5063075;28;20054;-80
2023/05/22 10:53:41;;;;;;;17.13;7.15;;;22.20;99.90;;;;;;5046053;28;20047;-81
2023/05/22 10:56:15;;;;;;;16.23;6.75;;;21.00;99.90;;;;;;5046482;28;20094;-80
2023/05/22 10:58:43;;;;;;;11.65;6.40;;;20.90;99.90;;;;;;5062685;28;20056;-81
2023/05/22 11:01:17;;;;;;;15.27;6.43;;;21.00;99.90;;;;;;5063286;28;20055;-82
2023/05/22 11:04:14;;;;;;;15.73;7.63;;;21.10;99.90;;;;;;5045630;28;20103;-82
2023/05/22 11:06:47;;;;;;;12.07;6.38;;;21.20;99.90;;;;;;5062016;28;20048;-81
2023/05/22 11:09:36;;;;;;;17.02;7.35;;;21.60;99.90;;;;;;5062723;28;20040;-81
2023/05/22 11:12:26;;;;;;;11.43;7.10;;;22.20;99.90;;;;;;5062580;28;20078;-82
2023/05/22 11:14:57;;;;;;;10.90;6.72;;;22.70;99.90;;;;;;5062708;28;20048;-83
2023/05/22 11:17:25;;;;;;;19.42;7.80;;;23.00;99.90;;;;;;5046260;28;20438;-80
2023/05/22 11:20:06;;;;;;;11.65;7.70;;;23.20;99.90;;;;;;5048242;28;20115;-81
2023/05/22 11:22:40;;;;;;;12.90;7.20;;;23.40;99.90;;;;;;5049025;28;20036;-80
2023/05/22 11:25:26;;;;;;;8.90;6.70;;;23.60;99.90;;;;;;5034063;28;20077;-82
2023/05/22 11:27:53;;;;;;;10.57;7.03;;;23.70;99.90;;;;;;5049166;28;20067;-82
2023/05/22 11:30:19;;;;;;;11.82;6.93;;;23.80;99.90;;;;;;5049654;28;20064;-82
2023/05/22 11:32:46;;;;;;;12.88;7.13;;;24.00;99.90;;;;;;5048920;28;20047;-83
2023/05/22 11:35:17;;;;;;;9.35;7.45;;;24.20;99.90;;;;;;5066437;28;20045;-83
2023/05/22 11:37:44;;;;;;;9.27;6.78;;;24.40;99.90;;;;;;5049755;28;20088;-84
2023/05/22 11:40:12;;;;;;;12.15;7.38;;;25.50;99.90;;;;;;5049677;28;20066;-83
2023/05/22 11:42:38;;;;;;;10.20;7.80;;;24.40;99.90;;;;;;5033475;28;20060;-82
2023/05/22 11:45:04;;;;;;;9.93;7.45;;;24.20;99.90;;;;;;5065940;28;20152;-82
2023/05/22 11:47:30;;;;;;;8.70;6.85;;;23.90;99.90;;;;;;5050668;28;20448;-82
2023/05/22 11:49:57;;;;;;;12.57;6.93;;;23.80;99.90;;;;;;5065832;28;20140;-84
2023/05/22 11:52:23;;;;;;;8.45;6.65;;;23.80;99.90;;;;;;5066116;28;20048;-82
2023/05/22 11:54:50;;;;;;;9.52;6.47;;;23.80;99.90;;;;;;5065681;28;20379;-82
2023/05/22 11:57:19;;;;;;;9.82;6.55;;;24.00;99.90;;;;;;5048601;28;20044;-82
2023/05/22 11:59:45;;;;;;;7.50;6.55;;;24.30;99.90;;;;;;5065670;28;20052;-81
2023/05/22 12:02:12;;;;;;;8.00;6.90;;;24.40;99.90;;;;;;5048635;28;20048;-83
2023/05/22 12:04:38;;;;;;;10.35;6.35;;;24.50;99.90;;;;;;5048733;28;20084;-84
2023/05/22 12:07:04;;;;;;;8.98;7.40;;;24.60;99.90;;;;;;5048181;28;20044;-80
2023/05/22 12:09:30;;;;;;;10.75;7.65;;;25.70;99.90;;;;;;5048024;28;20066;-80
2023/05/22 12:11:56;;;;;;;9.00;7.30;;;24.70;99.90;;;;;;5064693;28;20040;-80
2023/05/22 12:14:27;;;;;;;9.18;7.15;;;24.70;99.90;;;;;;5065832;28;20051;-86
2023/05/22 12:16:53;;;;;;;9.48;7.22;;;24.80;99.90;;;;;;5048563;28;20044;-81
2023/05/22 12:19:19;;;;;;;8.20;6.70;;;24.90;99.90;;;;;;5065236;28;20230;-83
2023/05/22 12:21:44;;;;;;;9.82;7.07;;;25.00;99.90;;;;;;5065875;28;20082;-83
2023/05/22 12:24:10;;;;;;;9.48;6.32;;;25.20;99.90;;;;;;5031619;28;20045;-82
2023/05/22 12:26:36;;;;;;;11.95;8.68;;;26.10;99.90;;;;;;5065271;28;20056;-83
2023/05/22 12:29:05;;;;;;;8.63;6.70;;;25.60;99.90;;;;;;5051005;28;20040;-85
2023/05/22 12:31:37;;;;;;;8.80;6.97;;;25.80;99.90;;;;;;5051434;28;20045;-87
2023/05/22 12:34:06;;;;;;;8.30;7.13;;;25.90;99.90;;;;;;5052356;28;20045;-87
2023/05/22 12:36:37;;;;;;;8.55;6.93;;;26.10;99.90;;;;;;5049095;28;20044;-82